Terminal Aerodrome Forecast
Issued by NWS

Home | Current Version | Previous Version | Text Only | Print | Product List | Glossary On
Versions: 1 2 3 4 5 6 7 8 9 10 11 12 13
090
FTUS46 KMTR 040520
TAFSTS
TAF
KSTS 040520Z 0406/0506 VRB03KT P6SM SKC
      TEMPO 0407/0409 1/2SM FG VV001
     FM040900 31003KT 1/4SM FG VV002
     FM041730 30004KT P6SM SCT030 BKN200
     FM042100 24005KT P6SM SCT020 BKN150
     FM050200 30007KT P6SM OVC020=

USA.gov is the U.S. government's official web portal to all federal, state and local government web resources and services.